Time;durP1;ratioP1;P1;durP2;ratioP2;P2;SDS_P1;SDS_P2;PMS_P1;PMS_P2;Temp;Humidity;BMP_temperature;BMP_pressure;BME280_temperature;BME280_humidity;BME280_pressure;Samples;Min_cycle;Max_cycle;Signal;HPM_P1;HPM_P2
2021/09/10 00:00:42;;;;;;;14.70;13.27;;;25.30;73.90;;;;;;4175640;28;20502;-58
2021/09/10 00:03:04;;;;;;;14.10;12.75;;;25.30;73.90;;;;;;4191924;28;20052;-58
2021/09/10 00:05:26;;;;;;;14.60;13.25;;;25.30;73.90;;;;;;4191710;28;20044;-58
2021/09/10 00:07:50;;;;;;;14.75;13.35;;;25.30;73.90;;;;;;4175454;28;20053;-58
2021/09/10 00:10:12;;;;;;;15.35;13.75;;;25.30;73.80;;;;;;4175642;28;20073;-58
2021/09/10 00:12:34;;;;;;;14.40;13.10;;;25.30;73.70;;;;;;4175394;28;20041;-59
2021/09/10 00:14:56;;;;;;;15.25;13.65;;;25.30;73.70;;;;;;4159012;28;20160;-57
2021/09/10 00:17:19;;;;;;;15.13;13.60;;;25.30;73.70;;;;;;4174719;28;20511;-58
2021/09/10 00:19:41;;;;;;;13.80;12.52;;;25.30;73.60;;;;;;4174645;28;20049;-60
2021/09/10 00:22:03;;;;;;;15.02;13.43;;;25.30;73.90;;;;;;4175107;28;20064;-59
2021/09/10 00:24:26;;;;;;;15.77;14.27;;;25.30;74.00;;;;;;4190611;28;20044;-57
2021/09/10 00:26:49;;;;;;;15.77;14.27;;;25.30;73.90;;;;;;4191020;28;20143;-58
2021/09/10 00:29:12;;;;;;;14.77;13.38;;;25.30;73.90;;;;;;4174034;28;20041;-59
2021/09/10 00:31:34;;;;;;;13.52;12.25;;;25.30;74.00;;;;;;4175032;28;20111;-57
2021/09/10 00:33:56;;;;;;;14.52;13.15;;;25.30;73.90;;;;;;4163140;28;20045;-58
2021/09/10 00:36:18;;;;;;;13.75;12.35;;;25.30;73.90;;;;;;4173580;28;20047;-59
2021/09/10 00:38:41;;;;;;;14.90;12.30;;;25.30;74.00;;;;;;4174803;28;20118;-58
2021/09/10 00:41:04;;;;;;;14.43;12.93;;;25.20;73.90;;;;;;4175009;28;20045;-58
2021/09/10 00:43:27;;;;;;;14.02;12.68;;;25.20;73.90;;;;;;4166950;28;20420;-58
2021/09/10 00:45:49;;;;;;;13.55;12.25;;;25.30;74.00;;;;;;4173645;28;20044;-58
2021/09/10 00:48:12;;;;;;;14.70;13.30;;;25.30;74.00;;;;;;4179792;28;20737;-57
2021/09/10 00:50:34;;;;;;;14.68;12.98;;;25.20;73.90;;;;;;4190975;28;20068;-58
2021/09/10 00:52:57;;;;;;;14.75;13.20;;;25.30;74.00;;;;;;4175000;28;20055;-58
2021/09/10 00:55:25;;;;;;;13.57;12.38;;;25.20;74.10;;;;;;4174891;28;20037;-57
2021/09/10 00:57:49;;;;;;;14.57;13.10;;;25.30;74.20;;;;;;4174996;28;20136;-56
2021/09/10 01:00:12;;;;;;;14.80;12.85;;;25.20;74.20;;;;;;4158360;28;20065;-58
2021/09/10 01:02:35;;;;;;;14.32;12.95;;;25.20;74.30;;;;;;4174054;28;20048;-58
2021/09/10 01:04:58;;;;;;;14.15;12.80;;;25.20;74.30;;;;;;4174594;28;20057;-57
2021/09/10 01:07:20;;;;;;;14.27;12.77;;;25.20;74.30;;;;;;4174332;28;20143;-60
2021/09/10 01:09:44;;;;;;;13.63;12.23;;;25.20;74.40;;;;;;4174623;28;20131;-57
2021/09/10 01:12:07;;;;;;;13.90;12.50;;;25.20;74.30;;;;;;4180242;28;20075;-58
2021/09/10 01:14:31;;;;;;;13.10;11.77;;;25.20;74.30;;;;;;4190691;28;20058;-58
2021/09/10 01:16:53;;;;;;;12.10;10.88;;;25.20;74.20;;;;;;4174639;28;20041;-58
2021/09/10 01:19:27;;;;;;;12.45;11.35;;;25.20;74.10;;;;;;4174311;28;20061;-58
2021/09/10 01:21:52;;;;;;;11.50;10.38;;;25.20;74.00;;;;;;4173590;28;20600;-57
2021/09/10 01:24:14;;;;;;;11.95;10.65;;;25.20;74.10;;;;;;4174689;28;20056;-57
2021/09/10 01:26:38;;;;;;;11.65;10.45;;;25.20;74.00;;;;;;4174679;28;20055;-57
2021/09/10 01:29:01;;;;;;;11.75;10.65;;;25.20;74.00;;;;;;4172876;28;20498;-57
2021/09/10 01:31:23;;;;;;;12.60;10.90;;;25.20;73.90;;;;;;4174409;28;20115;-58
2021/09/10 01:33:45;;;;;;;11.43;10.43;;;25.20;73.90;;;;;;4173986;28;20053;-57
2021/09/10 01:36:08;;;;;;;13.02;11.38;;;25.20;73.80;;;;;;4162456;28;20550;-57
2021/09/10 01:38:30;;;;;;;10.63;9.63;;;25.20;73.90;;;;;;4159045;28;20068;-62
2021/09/10 01:40:53;;;;;;;11.05;9.98;;;25.20;73.80;;;;;;4172802;28;20461;-58
2021/09/10 01:43:16;;;;;;;12.23;11.02;;;25.10;73.60;;;;;;4174518;28;20049;-58
2021/09/10 01:45:38;;;;;;;11.52;10.52;;;25.10;73.60;;;;;;4174426;28;20180;-58
2021/09/10 01:48:01;;;;;;;12.00;10.95;;;25.10;73.50;;;;;;4175281;28;20487;-57
2021/09/10 01:50:25;;;;;;;11.27;10.27;;;25.10;73.40;;;;;;4163812;28;20054;-58
2021/09/10 01:52:47;;;;;;;12.02;10.82;;;25.10;73.40;;;;;;4157930;28;20123;-58
2021/09/10 01:55:12;;;;;;;11.65;10.55;;;25.10;73.60;;;;;;4157578;28;20053;-58
2021/09/10 01:57:35;;;;;;;12.55;11.45;;;25.10;73.60;;;;;;4158173;28;20072;-58
2021/09/10 01:59:58;;;;;;;13.23;11.90;;;25.10;73.80;;;;;;4157930;28;20076;-57
2021/09/10 02:02:21;;;;;;;14.38;12.98;;;25.10;74.00;;;;;;4156340;28;20053;-58
2021/09/10 02:04:42;;;;;;;13.60;12.35;;;25.10;74.20;;;;;;4159383;28;20152;-58
2021/09/10 02:07:04;;;;;;;13.68;12.48;;;25.00;74.20;;;;;;4187723;28;20730;-57
2021/09/10 02:09:27;;;;;;;13.55;12.25;;;25.00;74.30;;;;;;4193443;28;20081;-58
2021/09/10 02:11:49;;;;;;;13.40;12.10;;;25.00;74.30;;;;;;4193678;28;20056;-58
2021/09/10 02:14:11;;;;;;;13.98;12.60;;;25.00;74.40;;;;;;4193833;28;20086;-57
2021/09/10 02:16:35;;;;;;;12.63;11.48;;;25.00;74.60;;;;;;4193692;28;20048;-58
2021/09/10 02:18:57;;;;;;;13.13;11.95;;;25.00;74.80;;;;;;4177200;28;20049;-57
2021/09/10 02:21:19;;;;;;;13.02;11.25;;;25.00;74.80;;;;;;4176905;28;20128;-57
2021/09/10 02:23:42;;;;;;;13.27;12.07;;;25.00;74.80;;;;;;4160576;28;20049;-59
2021/09/10 02:26:04;;;;;;;11.60;10.57;;;25.00;74.90;;;;;;4160502;28;20557;-57
2021/09/10 02:28:26;;;;;;;12.68;11.43;;;25.00;74.90;;;;;;4173364;28;20044;-57
2021/09/10 02:30:49;;;;;;;13.25;12.00;;;25.00;75.00;;;;;;4186748;28;20065;-57
2021/09/10 02:33:13;;;;;;;12.65;11.27;;;25.00;75.00;;;;;;4176907;28;20044;-57
2021/09/10 02:35:35;;;;;;;11.80;10.70;;;25.00;75.00;;;;;;4177046;28;20063;-58
2021/09/10 02:37:58;;;;;;;12.35;11.15;;;25.00;75.00;;;;;;4176831;28;20521;-57
2021/09/10 02:40:20;;;;;;;12.43;11.23;;;25.00;75.00;;;;;;4175880;28;20060;-59
2021/09/10 02:42:42;;;;;;;11.93;10.80;;;25.00;75.00;;;;;;4178362;28;20414;-57
2021/09/10 02:45:05;;;;;;;13.02;11.73;;;25.00;75.80;;;;;;4176883;28;20053;-59
2021/09/10 02:47:27;;;;;;;13.02;11.05;;;24.90;74.90;;;;;;4173626;28;20049;-57
2021/09/10 02:49:50;;;;;;;12.35;11.25;;;25.00;74.90;;;;;;4160281;28;20060;-58
2021/09/10 02:52:12;;;;;;;12.02;11.00;;;24.90;74.90;;;;;;4177106;28;20044;-57
2021/09/10 02:54:36;;;;;;;12.48;11.30;;;24.90;75.10;;;;;;4176526;28;20045;-57
2021/09/10 02:56:59;;;;;;;12.13;10.93;;;24.90;75.30;;;;;;4185244;28;20049;-56
2021/09/10 02:59:21;;;;;;;14.07;12.65;;;24.90;75.30;;;;;;4176760;28;20059;-58
2021/09/10 03:01:44;;;;;;;13.77;12.48;;;24.90;75.40;;;;;;4176481;28;20041;-57
2021/09/10 03:04:07;;;;;;;13.63;12.23;;;24.90;75.50;;;;;;4176595;28;20450;-58
2021/09/10 03:06:35;;;;;;;12.55;11.30;;;24.90;75.50;;;;;;4184932;28;20043;-59
2021/09/10 03:08:57;;;;;;;12.80;11.70;;;24.90;75.50;;;;;;4192391;28;20058;-60
2021/09/10 03:11:19;;;;;;;13.95;12.75;;;24.90;75.60;;;;;;4192726;28;20052;-59
2021/09/10 03:13:41;;;;;;;14.70;12.80;;;24.90;75.70;;;;;;4192823;28;20106;-59
2021/09/10 03:16:04;;;;;;;15.63;14.13;;;24.90;75.80;;;;;;4187359;28;20150;-59
2021/09/10 03:18:26;;;;;;;13.18;11.77;;;24.90;75.90;;;;;;4176295;28;20092;-59
2021/09/10 03:20:48;;;;;;;14.18;12.88;;;24.90;75.90;;;;;;4174523;28;20437;-59
2021/09/10 03:23:12;;;;;;;16.08;14.55;;;24.90;76.00;;;;;;4191995;28;20045;-59
2021/09/10 03:25:34;;;;;;;16.75;15.02;;;24.90;76.00;;;;;;4192534;28;20131;-59
2021/09/10 03:27:56;;;;;;;16.30;14.48;;;24.90;76.00;;;;;;4176575;28;20861;-59
2021/09/10 03:30:19;;;;;;;14.80;13.40;;;24.80;75.90;;;;;;4176421;28;20056;-59
2021/09/10 03:32:41;;;;;;;15.15;13.85;;;24.80;75.90;;;;;;4176401;28;20056;-59
2021/09/10 03:35:04;;;;;;;15.68;13.95;;;24.90;76.10;;;;;;4176095;28;20106;-58
2021/09/10 03:37:26;;;;;;;14.80;13.40;;;24.80;76.20;;;;;;4172153;28;20430;-58
2021/09/10 03:39:49;;;;;;;14.63;13.07;;;24.90;76.30;;;;;;4192640;28;20433;-58
2021/09/10 03:42:11;;;;;;;17.55;15.70;;;24.80;76.30;;;;;;4190005;28;20052;-59
2021/09/10 03:44:34;;;;;;;16.23;14.73;;;24.80;76.30;;;;;;4175945;28;20491;-59
2021/09/10 03:46:56;;;;;;;16.50;14.90;;;24.80;76.30;;;;;;4187816;28;20059;-59
2021/09/10 03:49:18;;;;;;;18.67;15.85;;;24.80;77.20;;;;;;4192220;28;20057;-59
2021/09/10 03:51:40;;;;;;;16.88;14.35;;;24.80;76.30;;;;;;4192450;28;20411;-59
2021/09/10 03:54:02;;;;;;;18.17;16.23;;;24.80;76.40;;;;;;4191979;28;20052;-59
2021/09/10 03:56:26;;;;;;;16.05;14.65;;;24.80;76.40;;;;;;4192266;28;20041;-58
2021/09/10 03:58:48;;;;;;;15.57;14.10;;;24.80;76.50;;;;;;4192216;28;20044;-60
2021/09/10 04:01:11;;;;;;;15.98;14.38;;;24.80;76.50;;;;;;4192052;28;20072;-59
2021/09/10 04:03:34;;;;;;;17.77;16.02;;;24.80;76.40;;;;;;4183892;28;20069;-59
2021/09/10 04:05:59;;;;;;;18.20;16.52;;;24.80;76.50;;;;;;4175366;28;20492;-59
2021/09/10 04:08:22;;;;;;;17.60;15.93;;;24.80;76.50;;;;;;4174833;28;20126;-59
2021/09/10 04:10:45;;;;;;;17.40;15.73;;;24.80;76.50;;;;;;4174810;28;20053;-59
2021/09/10 04:13:08;;;;;;;18.25;15.88;;;24.80;76.50;;;;;;4177140;28;20052;-59
2021/09/10 04:15:30;;;;;;;18.90;16.80;;;24.80;77.30;;;;;;4174394;28;20045;-59
2021/09/10 04:17:52;;;;;;;18.55;16.90;;;24.80;76.60;;;;;;4174745;28;20526;-58
2021/09/10 04:20:14;;;;;;;19.40;17.50;;;24.80;76.70;;;;;;4175106;28;20136;-59
2021/09/10 04:22:36;;;;;;;20.17;18.05;;;24.80;76.80;;;;;;4178014;28;20114;-58
2021/09/10 04:24:59;;;;;;;20.52;18.42;;;24.80;76.80;;;;;;4175274;28;20406;-59
2021/09/10 04:27:21;;;;;;;20.38;18.48;;;24.80;76.90;;;;;;4174112;28;20112;-60
2021/09/10 04:29:44;;;;;;;18.77;17.02;;;24.70;76.80;;;;;;4175269;28;20517;-59
2021/09/10 04:32:07;;;;;;;20.75;18.85;;;24.70;76.90;;;;;;4174917;28;20083;-59
2021/09/10 04:34:29;;;;;;;20.80;18.48;;;24.80;77.00;;;;;;4158619;28;20499;-59
2021/09/10 04:36:51;;;;;;;20.67;18.58;;;24.70;77.00;;;;;;4174959;28;20102;-59
2021/09/10 04:39:13;;;;;;;20.80;18.90;;;24.70;77.00;;;;;;4167889;28;20128;-59
2021/09/10 04:41:35;;;;;;;20.70;18.50;;;24.70;77.10;;;;;;4174635;28;20056;-58
2021/09/10 04:43:58;;;;;;;22.38;19.35;;;24.70;77.10;;;;;;4174935;28;20488;-58
2021/09/10 04:46:22;;;;;;;21.92;19.65;;;24.70;77.20;;;;;;4187414;28;20105;-58
2021/09/10 04:48:44;;;;;;;21.55;19.17;;;24.70;77.30;;;;;;4191172;28;20045;-59
2021/09/10 04:51:06;;;;;;;21.27;19.17;;;24.70;77.20;;;;;;4163852;28;20517;-58
2021/09/10 04:53:28;;;;;;;22.52;20.23;;;24.70;77.30;;;;;;4177816;28;20609;-59
2021/09/10 04:55:51;;;;;;;22.08;19.60;;;24.70;77.30;;;;;;4174823;28;20052;-59
2021/09/10 04:58:13;;;;;;;22.70;20.30;;;24.70;77.30;;;;;;4174924;28;20053;-59
2021/09/10 05:00:36;;;;;;;21.55;19.35;;;24.70;77.30;;;;;;4160968;28;20041;-58
2021/09/10 05:03:00;;;;;;;22.10;19.95;;;24.70;77.30;;;;;;4173680;28;20057;-59
2021/09/10 05:05:22;;;;;;;21.63;19.55;;;24.70;77.40;;;;;;4158643;28;20055;-58
2021/09/10 05:07:45;;;;;;;21.85;19.77;;;24.70;77.40;;;;;;4158099;28;20152;-59
2021/09/10 05:10:07;;;;;;;22.63;20.25;;;24.60;77.30;;;;;;4158206;28;20045;-59
2021/09/10 05:12:29;;;;;;;22.58;20.27;;;24.70;77.50;;;;;;4158225;28;20057;-59
2021/09/10 05:14:52;;;;;;;22.13;19.83;;;24.70;77.50;;;;;;4159479;28;20052;-59
2021/09/10 05:17:14;;;;;;;21.73;19.73;;;24.60;77.60;;;;;;4159453;28;20044;-59
2021/09/10 05:19:38;;;;;;;22.00;19.83;;;24.70;77.80;;;;;;4163334;28;20051;-59
2021/09/10 05:22:01;;;;;;;23.55;21.00;;;24.60;77.80;;;;;;4190576;28;20045;-59
2021/09/10 05:24:23;;;;;;;22.10;19.90;;;24.70;77.90;;;;;;4191294;28;20040;-59
2021/09/10 05:26:45;;;;;;;23.58;21.17;;;24.60;77.80;;;;;;4190210;28;20422;-59
2021/09/10 05:29:07;;;;;;;23.23;20.92;;;24.60;77.80;;;;;;4190284;28;20052;-57
2021/09/10 05:31:30;;;;;;;22.98;20.67;;;24.60;77.90;;;;;;4190868;28;20051;-58
2021/09/10 05:33:52;;;;;;;22.27;20.08;;;24.60;77.80;;;;;;4190770;28;20048;-58
2021/09/10 05:36:16;;;;;;;22.02;19.88;;;24.60;77.70;;;;;;4190718;28;20049;-58
2021/09/10 05:38:37;;;;;;;21.85;19.65;;;24.70;78.20;;;;;;4175620;28;20057;-59
2021/09/10 05:41:00;;;;;;;22.20;20.02;;;24.70;78.10;;;;;;4174965;28;20055;-59
2021/09/10 05:43:22;;;;;;;21.83;19.75;;;24.70;78.10;;;;;;4170950;28;20045;-59
2021/09/10 05:45:45;;;;;;;23.10;20.83;;;24.70;78.00;;;;;;4163810;28;20420;-59
2021/09/10 05:48:07;;;;;;;22.55;20.17;;;24.70;78.10;;;;;;4177357;28;20072;-57
2021/09/10 05:50:32;;;;;;;22.65;20.42;;;24.60;78.00;;;;;;4176469;28;20103;-58
2021/09/10 05:52:56;;;;;;;22.00;20.02;;;24.70;77.90;;;;;;4167507;28;20515;-59
2021/09/10 05:55:19;;;;;;;22.80;19.92;;;24.60;77.70;;;;;;4160893;28;20045;-60
2021/09/10 05:57:42;;;;;;;21.95;20.05;;;24.60;77.60;;;;;;4161067;28;20073;-60
2021/09/10 06:00:05;;;;;;;21.45;19.45;;;24.60;77.60;;;;;;4165156;28;20053;-60
2021/09/10 06:02:32;;;;;;;21.17;19.17;;;24.60;77.70;;;;;;4160902;28;20053;-60
2021/09/10 06:04:55;;;;;;;21.58;19.63;;;24.60;77.80;;;;;;4161924;28;20051;-60
2021/09/10 06:07:18;;;;;;;21.23;18.92;;;24.60;77.80;;;;;;4160935;28;20451;-60
2021/09/10 06:09:42;;;;;;;19.55;17.65;;;24.60;77.80;;;;;;4161640;28;20550;-59
2021/09/10 06:12:06;;;;;;;21.10;18.92;;;24.60;77.90;;;;;;4160311;28;20053;-60
2021/09/10 06:14:29;;;;;;;21.17;19.15;;;24.50;77.80;;;;;;4160689;28;20404;-58
2021/09/10 06:16:51;;;;;;;20.90;18.88;;;24.50;78.00;;;;;;4160603;28;20092;-59
2021/09/10 06:19:14;;;;;;;23.20;19.65;;;24.50;78.10;;;;;;4164604;28;20045;-59
2021/09/10 06:21:36;;;;;;;21.58;19.33;;;24.50;78.10;;;;;;4172149;28;20049;-59
2021/09/10 06:23:59;;;;;;;22.83;20.58;;;24.50;78.20;;;;;;4180654;28;20107;-59
2021/09/10 06:26:24;;;;;;;22.92;20.70;;;24.50;78.20;;;;;;4176478;28;20365;-59
2021/09/10 06:28:46;;;;;;;21.85;19.83;;;24.50;78.20;;;;;;4176851;28;20053;-59
2021/09/10 06:31:09;;;;;;;20.83;18.83;;;24.50;78.20;;;;;;4192334;28;20048;-59
2021/09/10 06:33:32;;;;;;;19.83;17.85;;;24.50;78.30;;;;;;4193537;28;20072;-60
2021/09/10 06:35:55;;;;;;;22.02;19.90;;;24.50;78.40;;;;;;4192736;28;20053;-59
2021/09/10 06:38:17;;;;;;;20.80;18.63;;;24.50;78.50;;;;;;4176548;28;20048;-60
2021/09/10 06:40:40;;;;;;;21.55;19.25;;;24.50;78.50;;;;;;4176824;28;20049;-58
2021/09/10 06:43:04;;;;;;;21.25;19.27;;;24.50;78.60;;;;;;4176866;28;20044;-60
2021/09/10 06:45:26;;;;;;;21.58;19.38;;;24.50;78.60;;;;;;4181590;28;20048;-58
2021/09/10 06:47:48;;;;;;;21.00;19.00;;;24.50;78.50;;;;;;4193488;28;20498;-59
2021/09/10 06:50:12;;;;;;;20.52;18.48;;;24.50;78.50;;;;;;4207608;28;20052;-60
2021/09/10 06:52:35;;;;;;;18.60;16.70;;;24.50;78.60;;;;;;4210059;28;20050;-59
2021/09/10 06:55:01;;;;;;;17.88;16.17;;;24.50;78.70;;;;;;4177552;28;20109;-61
2021/09/10 06:57:27;;;;;;;17.35;15.65;;;24.50;78.90;;;;;;4176745;28;20056;-56
2021/09/10 06:59:51;;;;;;;18.05;16.30;;;24.50;78.90;;;;;;4176547;28;20483;-59
2021/09/10 07:02:14;;;;;;;17.42;15.88;;;24.50;79.00;;;;;;4176256;28;20049;-57
2021/09/10 07:04:37;;;;;;;16.95;15.32;;;24.50;79.00;;;;;;4189400;28;20056;-59
2021/09/10 07:07:00;;;;;;;16.65;14.88;;;24.50;79.70;;;;;;4193107;28;20135;-59
2021/09/10 07:09:22;;;;;;;14.25;12.85;;;24.50;80.40;;;;;;4192902;28;20067;-60
2021/09/10 07:11:45;;;;;;;15.85;12.80;;;24.50;80.00;;;;;;4192826;28;20097;-59
2021/09/10 07:14:08;;;;;;;14.93;13.10;;;24.50;79.90;;;;;;4192062;28;20075;-59
2021/09/10 07:16:33;;;;;;;12.75;11.40;;;24.50;79.80;;;;;;4195629;28;20410;-60
2021/09/10 07:18:55;;;;;;;13.60;12.43;;;24.50;79.90;;;;;;4195240;28;20094;-60
2021/09/10 07:21:18;;;;;;;12.30;11.15;;;24.50;79.70;;;;;;4191931;28;20043;-60
2021/09/10 07:23:40;;;;;;;13.07;11.70;;;24.50;79.80;;;;;;4191495;28;20052;-60
2021/09/10 07:26:04;;;;;;;11.48;10.48;;;24.50;79.70;;;;;;4200854;28;20044;-60
2021/09/10 07:28:26;;;;;;;11.23;10.20;;;24.60;79.80;;;;;;4207629;28;20058;-60
2021/09/10 07:30:49;;;;;;;12.45;10.90;;;24.50;79.70;;;;;;4176094;28;20048;-60
2021/09/10 07:33:13;;;;;;;11.93;10.95;;;24.60;79.90;;;;;;4176136;28;20503;-60
2021/09/10 07:35:35;;;;;;;12.60;10.95;;;24.50;79.80;;;;;;4176150;28;20045;-59
2021/09/10 07:37:58;;;;;;;12.52;11.43;;;24.50;79.80;;;;;;4176069;28;20086;-60
2021/09/10 07:40:20;;;;;;;11.63;10.63;;;24.60;79.90;;;;;;4177241;28;20060;-61
2021/09/10 07:42:47;;;;;;;13.57;12.27;;;24.60;80.80;;;;;;4176136;28;20049;-59
2021/09/10 07:45:11;;;;;;;13.82;12.52;;;24.50;80.00;;;;;;4175812;28;20049;-60
2021/09/10 07:47:34;;;;;;;14.50;13.15;;;24.60;80.00;;;;;;4175526;28;20072;-61
2021/09/10 07:49:57;;;;;;;15.70;14.15;;;24.60;80.10;;;;;;4186041;28;20049;-60
2021/09/10 07:52:20;;;;;;;16.48;14.88;;;24.60;80.50;;;;;;4192585;28;21780;-60
2021/09/10 07:54:42;;;;;;;15.90;14.38;;;24.60;80.30;;;;;;4177108;28;20716;-60
2021/09/10 07:57:13;;;;;;;;;;;24.60;80.30;;;;;;4175720;28;20060;-60
2021/09/10 07:59:35;;;;;;;17.40;15.70;;;24.60;80.00;;;;;;4175118;28;19970;-60
2021/09/10 08:01:57;;;;;;;16.92;15.40;;;24.60;80.30;;;;;;4173942;28;20056;-60
2021/09/10 08:04:20;;;;;;;16.90;14.93;;;24.60;80.60;;;;;;4175289;28;20488;-59
2021/09/10 08:06:44;;;;;;;17.55;15.82;;;24.60;80.50;;;;;;4174662;28;20057;-61
2021/09/10 08:09:06;;;;;;;17.33;15.75;;;24.60;80.80;;;;;;4174813;28;20059;-60
2021/09/10 08:11:30;;;;;;;18.05;16.25;;;24.60;80.70;;;;;;4175458;28;20060;-59
2021/09/10 08:13:52;;;;;;;17.25;15.55;;;24.60;80.80;;;;;;4175397;28;20418;-60
2021/09/10 08:16:14;;;;;;;18.58;16.35;;;24.60;80.50;;;;;;4174765;28;20526;-59
2021/09/10 08:18:37;;;;;;;18.30;16.40;;;24.60;80.60;;;;;;4170812;28;20068;-60
2021/09/10 08:21:00;;;;;;;19.00;17.20;;;24.60;80.60;;;;;;4175336;28;20049;-60
2021/09/10 08:23:23;;;;;;;17.75;16.15;;;24.60;80.60;;;;;;4175417;28;20049;-58
2021/09/10 08:25:45;;;;;;;19.30;17.45;;;24.60;80.30;;;;;;4188225;28;20043;-61
2021/09/10 08:28:08;;;;;;;20.15;18.17;;;24.60;80.30;;;;;;4205195;28;20067;-60
2021/09/10 08:30:30;;;;;;;20.65;18.65;;;24.70;80.30;;;;;;4191774;28;20507;-60
2021/09/10 08:32:53;;;;;;;18.33;16.52;;;24.60;80.20;;;;;;4191738;28;20048;-60
2021/09/10 08:35:15;;;;;;;20.02;17.77;;;24.70;80.20;;;;;;4191726;28;20426;-60
2021/09/10 08:37:39;;;;;;;18.48;16.58;;;24.60;80.70;;;;;;4191677;28;20514;-60
2021/09/10 08:40:03;;;;;;;18.83;16.98;;;24.60;80.50;;;;;;4175059;28;20091;-59
2021/09/10 08:42:25;;;;;;;20.38;18.23;;;24.70;80.80;;;;;;4175024;28;20498;-60
2021/09/10 08:44:47;;;;;;;20.02;18.02;;;24.60;80.60;;;;;;4175095;28;20701;-60
2021/09/10 08:47:11;;;;;;;18.83;17.08;;;24.70;80.60;;;;;;4174477;28;20049;-60
2021/09/10 08:49:34;;;;;;;17.63;15.93;;;24.70;80.50;;;;;;4176183;28;20052;-60
2021/09/10 08:51:56;;;;;;;18.60;16.80;;;24.60;80.30;;;;;;4175032;28;20075;-60
2021/09/10 08:54:19;;;;;;;19.85;17.95;;;24.60;80.50;;;;;;4178797;28;20044;-60
2021/09/10 08:56:42;;;;;;;20.55;18.55;;;24.60;80.60;;;;;;4174598;28;20381;-60
2021/09/10 08:59:12;;;;;;;19.40;17.58;;;24.70;80.90;;;;;;4175067;28;20045;-60
2021/09/10 09:01:34;;;;;;;21.15;18.90;;;24.70;80.90;;;;;;4174369;28;20061;-60
2021/09/10 09:04:03;;;;;;;20.92;18.88;;;24.60;80.60;;;;;;4174777;28;20085;-60
2021/09/10 09:06:32;;;;;;;20.05;18.02;;;24.70;82.40;;;;;;4174384;28;20728;-60
2021/09/10 09:08:55;;;;;;;22.17;19.17;;;24.70;81.10;;;;;;4174472;28;20052;-60
2021/09/10 09:11:17;;;;;;;20.42;18.52;;;24.70;81.10;;;;;;4190677;28;20043;-60
2021/09/10 09:13:44;;;;;;;20.17;18.08;;;24.70;81.00;;;;;;4181252;28;20491;-60
2021/09/10 09:16:23;;;;;;;20.63;18.48;;;24.70;81.10;;;;;;4174228;28;20045;-60
2021/09/10 09:18:47;;;;;;;20.73;18.67;;;24.70;81.60;;;;;;4186697;28;20051;-60
2021/09/10 09:21:09;;;;;;;21.25;19.00;;;24.70;81.30;;;;;;4189920;28;20059;-60
2021/09/10 09:23:31;;;;;;;23.02;19.13;;;24.70;81.60;;;;;;4190106;28;20040;-60
2021/09/10 09:25:54;;;;;;;22.08;19.88;;;24.70;81.40;;;;;;4174482;28;20083;-60
2021/09/10 09:28:20;;;;;;;21.73;18.45;;;24.70;81.10;;;;;;4191058;28;20036;-60
2021/09/10 09:30:43;;;;;;;22.73;20.33;;;24.70;80.80;;;;;;4180095;28;20495;-60
2021/09/10 09:33:06;;;;;;;27.10;21.40;;;24.70;80.90;;;;;;4174434;28;20052;-59
2021/09/10 09:35:31;;;;;;;23.00;20.50;;;24.70;81.30;;;;;;4174572;28;20041;-60
2021/09/10 09:37:53;;;;;;;22.02;19.73;;;24.70;81.10;;;;;;4174153;28;20139;-61
2021/09/10 09:40:16;;;;;;;21.38;19.08;;;24.70;80.80;;;;;;4174312;28;20076;-61
2021/09/10 09:42:38;;;;;;;23.30;20.58;;;24.70;81.10;;;;;;4173957;28;20045;-60
2021/09/10 09:45:12;;;;;;;22.35;19.95;;;24.70;81.00;;;;;;4178286;28;20048;-59
2021/09/10 09:47:38;;;;;;;20.80;18.60;;;24.70;81.60;;;;;;4173802;28;20045;-59
2021/09/10 09:50:05;;;;;;;19.25;17.08;;;24.70;82.10;;;;;;4184804;28;20517;-59
2021/09/10 09:52:28;;;;;;;21.27;18.05;;;24.70;82.80;;;;;;4174438;28;20052;-59
2021/09/10 09:54:51;;;;;;;22.33;19.65;;;24.80;83.00;;;;;;4174611;28;20056;-58
2021/09/10 09:57:14;;;;;;;19.25;17.45;;;24.80;82.80;;;;;;4157758;28;20136;-59
2021/09/10 09:59:36;;;;;;;20.75;18.65;;;24.80;82.60;;;;;;4169740;28;20048;-59
2021/09/10 10:01:59;;;;;;;19.48;17.42;;;24.80;82.80;;;;;;4174200;28;20045;-59
2021/09/10 10:04:23;;;;;;;19.85;17.55;;;24.80;82.50;;;;;;4189640;28;20064;-59
2021/09/10 10:06:51;;;;;;;19.88;17.85;;;24.80;82.40;;;;;;4173755;28;20890;-57
2021/09/10 10:09:16;;;;;;;20.67;18.48;;;24.70;82.40;;;;;;4174132;28;20065;-59
2021/09/10 10:11:43;;;;;;;20.58;18.38;;;24.80;82.10;;;;;;4163200;28;20050;-58
2021/09/10 10:14:06;;;;;;;19.60;17.60;;;24.80;82.00;;;;;;4173534;28;20560;-59
2021/09/10 10:16:41;;;;;;;22.88;20.48;;;24.80;81.90;;;;;;4173691;28;20044;-58
2021/09/10 10:19:04;;;;;;;22.25;19.98;;;24.80;82.60;;;;;;4190343;28;20052;-58
2021/09/10 10:21:52;;;;;;;23.00;19.30;;;24.80;82.30;;;;;;4190638;28;20048;-58
2021/09/10 10:24:41;;;;;;;22.58;20.15;;;24.80;82.40;;;;;;4183278;28;20051;-57
2021/09/10 10:27:26;;;;;;;21.10;18.90;;;24.80;82.30;;;;;;4188842;28;20044;-58
2021/09/10 10:29:48;;;;;;;21.20;19.00;;;24.80;82.30;;;;;;4174368;28;20045;-58
2021/09/10 10:32:10;;;;;;;22.05;19.77;;;24.80;81.80;;;;;;4180279;28;20120;-59
2021/09/10 10:34:34;;;;;;;22.33;19.48;;;24.80;82.00;;;;;;4183537;28;20048;-58
2021/09/10 10:36:58;;;;;;;23.50;20.20;;;24.80;82.30;;;;;;4176195;28;20044;-59
2021/09/10 10:39:28;;;;;;;21.73;19.52;;;24.80;82.30;;;;;;4172228;28;20045;-59
2021/09/10 10:41:53;;;;;;;23.10;20.70;;;24.80;82.50;;;;;;4176154;28;20049;-58
2021/09/10 10:44:46;;;;;;;22.58;20.20;;;24.80;82.60;;;;;;4158704;28;20057;-59
2021/09/10 10:47:09;;;;;;;23.48;20.70;;;24.80;82.70;;;;;;4176780;28;20404;-59
2021/09/10 10:49:32;;;;;;;21.48;19.25;;;24.80;82.10;;;;;;4176770;28;20123;-66
2021/09/10 10:51:55;;;;;;;22.73;20.38;;;24.90;82.20;;;;;;4178746;28;20057;-64
2021/09/10 10:54:26;;;;;;;22.73;19.92;;;24.90;82.30;;;;;;4186215;28;20048;-58
2021/09/10 10:56:49;;;;;;;19.45;17.45;;;24.90;82.00;;;;;;4190081;28;20675;-59
2021/09/10 10:59:38;;;;;;;22.80;20.50;;;24.90;81.50;;;;;;4193080;28;20426;-59
2021/09/10 11:05:08;;;;;;;21.85;19.58;;;24.90;82.00;;;;;;4183182;28;20072;-59
2021/09/10 11:07:31;;;;;;;22.67;20.38;;;24.90;81.60;;;;;;4176701;28;20453;-59
2021/09/10 11:09:59;;;;;;;20.40;18.33;;;25.00;81.50;;;;;;4176414;28;20048;-58
2021/09/10 11:12:21;;;;;;;23.02;20.75;;;25.00;81.40;;;;;;4177202;28;20106;-59
2021/09/10 11:14:44;;;;;;;21.30;19.15;;;25.00;81.40;;;;;;4177146;28;20457;-59
2021/09/10 11:17:12;;;;;;;22.77;20.45;;;25.00;81.50;;;;;;4177401;28;20045;-59
2021/09/10 11:19:35;;;;;;;20.60;18.48;;;25.00;81.80;;;;;;4176195;28;20053;-59
2021/09/10 11:22:01;;;;;;;19.02;17.23;;;25.00;81.40;;;;;;4182548;28;20052;-59
2021/09/10 11:24:30;;;;;;;22.15;19.92;;;25.00;81.30;;;;;;4190890;28;20040;-59
2021/09/10 11:26:53;;;;;;;22.77;20.55;;;25.10;81.60;;;;;;4192116;28;20049;-59
2021/09/10 11:29:16;;;;;;;22.02;20.02;;;25.00;81.50;;;;;;4192659;28;20143;-59
2021/09/10 11:31:37;;;;;;;20.77;18.77;;;25.00;81.30;;;;;;4191239;28;20055;-59
2021/09/10 11:34:00;;;;;;;19.55;17.38;;;25.00;81.30;;;;;;4191449;28;20131;-59
2021/09/10 11:36:24;;;;;;;18.92;16.92;;;25.10;81.20;;;;;;4192532;28;20070;-59
2021/09/10 11:38:48;;;;;;;16.98;15.38;;;25.10;81.00;;;;;;4192591;28;20051;-59
2021/09/10 11:41:25;;;;;;;17.40;15.63;;;25.10;80.70;;;;;;4190556;28;20475;-59
2021/09/10 11:43:49;;;;;;;18.23;16.52;;;25.10;80.40;;;;;;4180044;28;20484;-59
2021/09/10 11:46:13;;;;;;;16.42;14.82;;;25.10;80.60;;;;;;4175833;28;20060;-59
2021/09/10 11:48:37;;;;;;;17.67;16.08;;;25.10;80.80;;;;;;4175408;28;20051;-59
2021/09/10 11:51:01;;;;;;;16.90;14.27;;;25.10;80.50;;;;;;4175645;28;20466;-59
2021/09/10 11:53:27;;;;;;;16.70;15.02;;;25.20;80.20;;;;;;4175764;28;20463;-59
2021/09/10 11:55:59;;;;;;;15.80;14.20;;;25.20;80.10;;;;;;4191283;28;20145;-59
2021/09/10 11:58:35;;;;;;;16.63;15.05;;;25.20;80.00;;;;;;4191728;28;20585;-59
2021/09/10 12:01:19;;;;;;;16.95;15.35;;;25.20;80.10;;;;;;4177479;28;20495;-58
2021/09/10 12:03:48;;;;;;;17.52;15.75;;;25.20;80.30;;;;;;4175684;28;20491;-60
2021/09/10 12:06:10;;;;;;;15.95;14.35;;;25.20;80.30;;;;;;4171286;28;20148;-59
2021/09/10 12:08:32;;;;;;;15.50;14.15;;;25.20;80.00;;;;;;4169287;28;20052;-59
2021/09/10 12:10:54;;;;;;;16.63;14.98;;;25.20;80.00;;;;;;4172211;28;20053;-59
2021/09/10 12:13:17;;;;;;;15.90;14.20;;;25.20;80.00;;;;;;4175496;28;20057;-59